首页
METAR-TAF:

METAR-TAF

机场 :

朱利叶斯·尼雷尔国际机场

达累斯萨拉姆, 坦桑尼亚

纬度: 06-52S, 经度: 039-12E, 海拔: 55米

当前天气观测

该预报发布于1小时和18分钟前的07:00 UTC
风速10节,风向南转南东
温度 26°C
湿度 84%
气压 1017 hPa
能见度10公里或以上
少量云层高于1100英尺
散云层高于1200英尺
多云层高于8000英尺

METAR: HTDA 070700Z 16010KT 9999 FEW011 SCT012 BKN080 26/23 Q1017 NOSIG

时间: 11:18 (08:18 UTC)

预报

该预报发布于3小时和18分钟前的05:00 UTC
预报有效从07日的 06点(UTC)到 08日的 12点(UTC)
风速10节,风向
能见度10公里或以上
少量云层高于1200英尺
成为
从 07日的 08点(UTC)到 07日的 11点(UTC)
多云层高于2000英尺

TAF: HTDA 070500Z 0706/0812 17010KT 9999 FEW012 BECMG 0708/0711 BKN020

超过4000个机场的气象观测和天气预报(METAR&TAF报告)。

可查询的气象台以黄色和红色小点在地图上表示。

将鼠标移到小点上方,可查看气象台名称。

然后点击查看天气观测和预报。

如需切换地图:点击带黑十字的绿色按钮放大地图;点击带横线的绿色按钮缩小地图;或者点击绿色箭头查看邻近地区的地图。


METAR-TAF: